sensor_id;sensor_type;location;lat;lon;timestamp;P1;P2;P0
37290;PMS5003;23175;-33.706;151.094;2023-05-27T00:01:04;3;1;
37290;PMS5003;23175;-33.706;151.094;2023-05-27T00:03:34;1;1;
37290;PMS5003;23175;-33.706;151.094;2023-05-27T00:06:03;1;0;
37290;PMS5003;23175;-33.706;151.094;2023-05-27T00:08:33;4;1;
37290;PMS5003;23175;-33.706;151.094;2023-05-27T00:11:03;2;2;
37290;PMS5003;23175;-33.706;151.094;2023-05-27T00:13:33;2;2;
37290;PMS5003;23175;-33.706;151.094;2023-05-27T00:16:03;1;1;
37290;PMS5003;23175;-33.706;151.094;2023-05-27T00:18:33;3;3;
37290;PMS5003;23175;-33.706;151.094;2023-05-27T00:21:08;1;1;
37290;PMS5003;23175;-33.706;151.094;2023-05-27T00:23:39;1;1;
37290;PMS5003;23175;-33.706;151.094;2023-05-27T00:26:12;1;1;
37290;PMS5003;23175;-33.706;151.094;2023-05-27T00:28:43;2;2;
37290;PMS5003;23175;-33.706;151.094;2023-05-27T00:31:13;1;0;
37290;PMS5003;23175;-33.706;151.094;2023-05-27T00:33:43;0;0;
37290;PMS5003;23175;-33.706;151.094;2023-05-27T00:36:13;2;2;
37290;PMS5003;23175;-33.706;151.094;2023-05-27T00:38:43;7;7;
37290;PMS5003;23175;-33.706;151.094;2023-05-27T00:41:13;2;2;
37290;PMS5003;23175;-33.706;151.094;2023-05-27T00:43:43;3;1;
37290;PMS5003;23175;-33.706;151.094;2023-05-27T00:46:13;2;2;
37290;PMS5003;23175;-33.706;151.094;2023-05-27T00:48:42;1;1;
37290;PMS5003;23175;-33.706;151.094;2023-05-27T00:51:13;1;1;
37290;PMS5003;23175;-33.706;151.094;2023-05-27T00:53:43;2;2;
37290;PMS5003;23175;-33.706;151.094;2023-05-27T00:56:15;2;2;
37290;PMS5003;23175;-33.706;151.094;2023-05-27T00:58:45;2;0;
37290;PMS5003;23175;-33.706;151.094;2023-05-27T01:01:16;1;1;
37290;PMS5003;23175;-33.706;151.094;2023-05-27T01:03:45;4;1;
37290;PMS5003;23175;-33.706;151.094;2023-05-27T01:06:18;3;1;
37290;PMS5003;23175;-33.706;151.094;2023-05-27T01:08:56;3;2;
37290;PMS5003;23175;-33.706;151.094;2023-05-27T01:11:37;1;1;
37290;PMS5003;23175;-33.706;151.094;2023-05-27T01:14:11;1;1;
37290;PMS5003;23175;-33.706;151.094;2023-05-27T01:16:43;2;2;
37290;PMS5003;23175;-33.706;151.094;2023-05-27T01:19:17;1;1;
37290;PMS5003;23175;-33.706;151.094;2023-05-27T01:21:56;2;2;
37290;PMS5003;23175;-33.706;151.094;2023-05-27T01:24:28;0;0;
37290;PMS5003;23175;-33.706;151.094;2023-05-27T01:26:59;2;0;
37290;PMS5003;23175;-33.706;151.094;2023-05-27T01:29:29;2;2;
37290;PMS5003;23175;-33.706;151.094;2023-05-27T01:32:03;1;1;
37290;PMS5003;23175;-33.706;151.094;2023-05-27T01:34:41;3;3;
37290;PMS5003;23175;-33.706;151.094;2023-05-27T01:37:19;5;5;
37290;PMS5003;23175;-33.706;151.094;2023-05-27T01:39:51;1;1;
37290;PMS5003;23175;-33.706;151.094;2023-05-27T01:42:22;2;2;
37290;PMS5003;23175;-33.706;151.094;2023-05-27T01:44:52;1;1;
37290;PMS5003;23175;-33.706;151.094;2023-05-27T01:47:25;1;1;
37290;PMS5003;23175;-33.706;151.094;2023-05-27T01:49:54;1;1;
37290;PMS5003;23175;-33.706;151.094;2023-05-27T01:52:24;2;0;
37290;PMS5003;23175;-33.706;151.094;2023-05-27T01:54:54;5;2;
37290;PMS5003;23175;-33.706;151.094;2023-05-27T01:57:25;5;3;
37290;PMS5003;23175;-33.706;151.094;2023-05-27T01:59:54;1;1;
37290;PMS5003;23175;-33.706;151.094;2023-05-27T02:02:24;3;3;
37290;PMS5003;23175;-33.706;151.094;2023-05-27T02:04:54;3;1;
37290;PMS5003;23175;-33.706;151.094;2023-05-27T02:07:24;1;1;
37290;PMS5003;23175;-33.706;151.094;2023-05-27T02:09:54;3;1;
37290;PMS5003;23175;-33.706;151.094;2023-05-27T02:12:24;0;0;
37290;PMS5003;23175;-33.706;151.094;2023-05-27T02:14:53;0;0;
37290;PMS5003;23175;-33.706;151.094;2023-05-27T02:17:23;0;0;
37290;PMS5003;23175;-33.706;151.094;2023-05-27T02:19:54;2;2;
37290;PMS5003;23175;-33.706;151.094;2023-05-27T02:22:24;3;1;
37290;PMS5003;23175;-33.706;151.094;2023-05-27T02:24:54;0;0;
37290;PMS5003;23175;-33.706;151.094;2023-05-27T02:27:25;18;9;
37290;PMS5003;23175;-33.706;151.094;2023-05-27T02:29:55;3;3;
37290;PMS5003;23175;-33.706;151.094;2023-05-27T02:32:25;1;1;
37290;PMS5003;23175;-33.706;151.094;2023-05-27T02:34:55;0;0;
37290;PMS5003;23175;-33.706;151.094;2023-05-27T02:37:25;1;1;
37290;PMS5003;23175;-33.706;151.094;2023-05-27T02:39:54;0;0;
37290;PMS5003;23175;-33.706;151.094;2023-05-27T02:42:24;3;2;
37290;PMS5003;23175;-33.706;151.094;2023-05-27T02:44:54;1;1;
37290;PMS5003;23175;-33.706;151.094;2023-05-27T02:47:24;1;1;
37290;PMS5003;23175;-33.706;151.094;2023-05-27T02:49:54;2;2;
37290;PMS5003;23175;-33.706;151.094;2023-05-27T02:52:24;1;1;
37290;PMS5003;23175;-33.706;151.094;2023-05-27T02:54:54;0;0;
37290;PMS5003;23175;-33.706;151.094;2023-05-27T02:57:24;2;0;
37290;PMS5003;23175;-33.706;151.094;2023-05-27T02:59:55;2;2;
37290;PMS5003;23175;-33.706;151.094;2023-05-27T03:02:24;3;2;
37290;PMS5003;23175;-33.706;151.094;2023-05-27T03:04:54;8;7;
37290;PMS5003;23175;-33.706;151.094;2023-05-27T03:07:25;1;1;
37290;PMS5003;23175;-33.706;151.094;2023-05-27T03:09:55;2;2;
37290;PMS5003;23175;-33.706;151.094;2023-05-27T03:12:26;2;2;
37290;PMS5003;23175;-33.706;151.094;2023-05-27T03:14:56;2;2;
37290;PMS5003;23175;-33.706;151.094;2023-05-27T03:17:26;4;4;
37290;PMS5003;23175;-33.706;151.094;2023-05-27T03:19:57;2;2;
37290;PMS5003;23175;-33.706;151.094;2023-05-27T03:22:27;0;0;
37290;PMS5003;23175;-33.706;151.094;2023-05-27T03:24:57;1;0;
37290;PMS5003;23175;-33.706;151.094;2023-05-27T03:27:27;1;1;
37290;PMS5003;23175;-33.706;151.094;2023-05-27T03:29:57;0;0;
37290;PMS5003;23175;-33.706;151.094;2023-05-27T03:32:26;3;2;
37290;PMS5003;23175;-33.706;151.094;2023-05-27T03:34:56;3;3;
37290;PMS5003;23175;-33.706;151.094;2023-05-27T03:37:26;4;3;
37290;PMS5003;23175;-33.706;151.094;2023-05-27T03:39:56;2;0;
37290;PMS5003;23175;-33.706;151.094;2023-05-27T03:42:26;1;1;
37290;PMS5003;23175;-33.706;151.094;2023-05-27T03:44:55;1;1;
37290;PMS5003;23175;-33.706;151.094;2023-05-27T03:47:25;1;1;
37290;PMS5003;23175;-33.706;151.094;2023-05-27T03:49:55;1;1;
37290;PMS5003;23175;-33.706;151.094;2023-05-27T03:52:25;3;2;
37290;PMS5003;23175;-33.706;151.094;2023-05-27T03:54:55;2;2;
37290;PMS5003;23175;-33.706;151.094;2023-05-27T03:57:24;0;0;
37290;PMS5003;23175;-33.706;151.094;2023-05-27T03:59:54;4;4;
37290;PMS5003;23175;-33.706;151.094;2023-05-27T04:02:24;2;2;
37290;PMS5003;23175;-33.706;151.094;2023-05-27T04:04:54;2;2;
37290;PMS5003;23175;-33.706;151.094;2023-05-27T04:07:24;5;4;
37290;PMS5003;23175;-33.706;151.094;2023-05-27T04:09:54;4;3;
37290;PMS5003;23175;-33.706;151.094;2023-05-27T04:12:24;1;1;
37290;PMS5003;23175;-33.706;151.094;2023-05-27T04:14:54;1;0;
37290;PMS5003;23175;-33.706;151.094;2023-05-27T04:17:24;1;1;
37290;PMS5003;23175;-33.706;151.094;2023-05-27T04:19:54;1;1;
37290;PMS5003;23175;-33.706;151.094;2023-05-27T04:22:24;1;1;
37290;PMS5003;23175;-33.706;151.094;2023-05-27T04:24:54;1;1;
37290;PMS5003;23175;-33.706;151.094;2023-05-27T04:27:24;2;2;
37290;PMS5003;23175;-33.706;151.094;2023-05-27T04:29:54;1;1;
37290;PMS5003;23175;-33.706;151.094;2023-05-27T04:32:24;1;1;
37290;PMS5003;23175;-33.706;151.094;2023-05-27T04:34:54;14;12;
37290;PMS5003;23175;-33.706;151.094;2023-05-27T04:37:25;67;56;
37290;PMS5003;23175;-33.706;151.094;2023-05-27T04:39:55;293;251;
37290;PMS5003;23175;-33.706;151.094;2023-05-27T04:42:26;102;84;
37290;PMS5003;23175;-33.706;151.094;2023-05-27T04:44:56;203;160;
37290;PMS5003;23175;-33.706;151.094;2023-05-27T04:47:26;34;24;
37290;PMS5003;23175;-33.706;151.094;2023-05-27T04:49:57;5;3;
37290;PMS5003;23175;-33.706;151.094;2023-05-27T04:52:27;38;32;
37290;PMS5003;23175;-33.706;151.094;2023-05-27T04:54:57;98;85;
37290;PMS5003;23175;-33.706;151.094;2023-05-27T04:57:27;56;43;
37290;PMS5003;23175;-33.706;151.094;2023-05-27T04:59:57;2;2;
37290;PMS5003;23175;-33.706;151.094;2023-05-27T05:02:28;59;49;
37290;PMS5003;23175;-33.706;151.094;2023-05-27T05:04:59;4;2;
37290;PMS5003;23175;-33.706;151.094;2023-05-27T05:07:30;13;10;
37290;PMS5003;23175;-33.706;151.094;2023-05-27T05:10:01;84;74;
37290;PMS5003;23175;-33.706;151.094;2023-05-27T05:12:32;55;44;
37290;PMS5003;23175;-33.706;151.094;2023-05-27T05:15:04;12;10;
37290;PMS5003;23175;-33.706;151.094;2023-05-27T05:17:34;13;13;
37290;PMS5003;23175;-33.706;151.094;2023-05-27T05:20:04;30;29;
37290;PMS5003;23175;-33.706;151.094;2023-05-27T05:22:35;5;4;
37290;PMS5003;23175;-33.706;151.094;2023-05-27T05:25:05;32;29;
37290;PMS5003;23175;-33.706;151.094;2023-05-27T05:27:35;52;45;
37290;PMS5003;23175;-33.706;151.094;2023-05-27T05:30:05;30;26;
37290;PMS5003;23175;-33.706;151.094;2023-05-27T05:32:36;26;24;
37290;PMS5003;23175;-33.706;151.094;2023-05-27T05:35:06;9;8;
37290;PMS5003;23175;-33.706;151.094;2023-05-27T05:37:37;34;32;
37290;PMS5003;23175;-33.706;151.094;2023-05-27T05:40:07;27;25;
37290;PMS5003;23175;-33.706;151.094;2023-05-27T05:42:39;85;79;
37290;PMS5003;23175;-33.706;151.094;2023-05-27T05:45:10;69;59;
37290;PMS5003;23175;-33.706;151.094;2023-05-27T05:47:40;75;71;
37290;PMS5003;23175;-33.706;151.094;2023-05-27T05:50:10;82;79;
37290;PMS5003;23175;-33.706;151.094;2023-05-27T05:52:40;32;32;
37290;PMS5003;23175;-33.706;151.094;2023-05-27T05:55:11;20;20;
37290;PMS5003;23175;-33.706;151.094;2023-05-27T05:57:41;24;24;
37290;PMS5003;23175;-33.706;151.094;2023-05-27T06:00:12;25;25;
37290;PMS5003;23175;-33.706;151.094;2023-05-27T06:02:42;13;11;
37290;PMS5003;23175;-33.706;151.094;2023-05-27T06:05:12;5;4;
37290;PMS5003;23175;-33.706;151.094;2023-05-27T06:07:43;3;1;
37290;PMS5003;23175;-33.706;151.094;2023-05-27T06:10:14;3;3;
37290;PMS5003;23175;-33.706;151.094;2023-05-27T06:12:44;8;6;
37290;PMS5003;23175;-33.706;151.094;2023-05-27T06:15:14;7;5;
37290;PMS5003;23175;-33.706;151.094;2023-05-27T06:17:44;3;3;
37290;PMS5003;23175;-33.706;151.094;2023-05-27T06:20:14;4;2;
37290;PMS5003;23175;-33.706;151.094;2023-05-27T06:22:44;1;1;
37290;PMS5003;23175;-33.706;151.094;2023-05-27T06:25:15;2;0;
37290;PMS5003;23175;-33.706;151.094;2023-05-27T06:27:45;4;2;
37290;PMS5003;23175;-33.706;151.094;2023-05-27T06:30:15;7;5;
37290;PMS5003;23175;-33.706;151.094;2023-05-27T06:32:45;2;2;
37290;PMS5003;23175;-33.706;151.094;2023-05-27T06:35:15;4;4;
37290;PMS5003;23175;-33.706;151.094;2023-05-27T06:37:44;4;4;
37290;PMS5003;23175;-33.706;151.094;2023-05-27T06:40:14;0;0;
37290;PMS5003;23175;-33.706;151.094;2023-05-27T06:42:45;2;2;
37290;PMS5003;23175;-33.706;151.094;2023-05-27T06:45:15;4;4;
37290;PMS5003;23175;-33.706;151.094;2023-05-27T06:47:45;4;4;
37290;PMS5003;23175;-33.706;151.094;2023-05-27T06:50:15;3;3;
37290;PMS5003;23175;-33.706;151.094;2023-05-27T06:52:44;1;1;
37290;PMS5003;23175;-33.706;151.094;2023-05-27T06:55:14;2;2;
37290;PMS5003;23175;-33.706;151.094;2023-05-27T06:57:45;3;3;
37290;PMS5003;23175;-33.706;151.094;2023-05-27T07:00:15;7;6;
37290;PMS5003;23175;-33.706;151.094;2023-05-27T07:02:45;4;4;
37290;PMS5003;23175;-33.706;151.094;2023-05-27T07:05:15;3;3;
37290;PMS5003;23175;-33.706;151.094;2023-05-27T07:07:45;4;3;
37290;PMS5003;23175;-33.706;151.094;2023-05-27T07:10:15;3;3;
37290;PMS5003;23175;-33.706;151.094;2023-05-27T07:12:46;5;5;
37290;PMS5003;23175;-33.706;151.094;2023-05-27T07:15:16;4;4;
37290;PMS5003;23175;-33.706;151.094;2023-05-27T07:17:46;2;2;
37290;PMS5003;23175;-33.706;151.094;2023-05-27T07:20:15;5;5;
37290;PMS5003;23175;-33.706;151.094;2023-05-27T07:22:46;11;10;
37290;PMS5003;23175;-33.706;151.094;2023-05-27T07:25:16;14;11;
37290;PMS5003;23175;-33.706;151.094;2023-05-27T07:27:46;10;9;
37290;PMS5003;23175;-33.706;151.094;2023-05-27T07:30:17;14;12;
37290;PMS5003;23175;-33.706;151.094;2023-05-27T07:32:47;9;9;
37290;PMS5003;23175;-33.706;151.094;2023-05-27T07:35:17;16;12;
37290;PMS5003;23175;-33.706;151.094;2023-05-27T07:37:47;8;6;
37290;PMS5003;23175;-33.706;151.094;2023-05-27T07:40:17;9;9;
37290;PMS5003;23175;-33.706;151.094;2023-05-27T07:42:48;9;9;
37290;PMS5003;23175;-33.706;151.094;2023-05-27T07:45:18;7;7;
37290;PMS5003;23175;-33.706;151.094;2023-05-27T07:47:48;13;10;
37290;PMS5003;23175;-33.706;151.094;2023-05-27T07:50:18;10;10;
37290;PMS5003;23175;-33.706;151.094;2023-05-27T07:52:48;11;11;
37290;PMS5003;23175;-33.706;151.094;2023-05-27T07:55:18;18;15;
37290;PMS5003;23175;-33.706;151.094;2023-05-27T07:57:49;14;12;
37290;PMS5003;23175;-33.706;151.094;2023-05-27T08:00:22;13;13;
37290;PMS5003;23175;-33.706;151.094;2023-05-27T08:02:53;9;9;
37290;PMS5003;23175;-33.706;151.094;2023-05-27T08:05:23;13;12;
37290;PMS5003;23175;-33.706;151.094;2023-05-27T08:07:53;10;8;
37290;PMS5003;23175;-33.706;151.094;2023-05-27T08:10:23;6;6;
37290;PMS5003;23175;-33.706;151.094;2023-05-27T08:12:54;9;7;
37290;PMS5003;23175;-33.706;151.094;2023-05-27T08:15:23;8;8;
37290;PMS5003;23175;-33.706;151.094;2023-05-27T08:17:53;12;11;
37290;PMS5003;23175;-33.706;151.094;2023-05-27T08:20:23;19;19;
37290;PMS5003;23175;-33.706;151.094;2023-05-27T08:22:54;9;9;
37290;PMS5003;23175;-33.706;151.094;2023-05-27T08:25:23;8;8;
37290;PMS5003;23175;-33.706;151.094;2023-05-27T08:27:54;6;6;
37290;PMS5003;23175;-33.706;151.094;2023-05-27T08:30:24;10;7;
37290;PMS5003;23175;-33.706;151.094;2023-05-27T08:32:55;6;6;
37290;PMS5003;23175;-33.706;151.094;2023-05-27T08:35:25;6;6;
37290;PMS5003;23175;-33.706;151.094;2023-05-27T08:37:56;7;7;
37290;PMS5003;23175;-33.706;151.094;2023-05-27T08:40:26;10;10;
37290;PMS5003;23175;-33.706;151.094;2023-05-27T08:42:57;8;8;
37290;PMS5003;23175;-33.706;151.094;2023-05-27T08:45:28;8;8;
37290;PMS5003;23175;-33.706;151.094;2023-05-27T08:48:00;9;8;
37290;PMS5003;23175;-33.706;151.094;2023-05-27T08:50:32;12;12;
37290;PMS5003;23175;-33.706;151.094;2023-05-27T08:53:03;14;14;
37290;PMS5003;23175;-33.706;151.094;2023-05-27T08:55:34;13;11;
37290;PMS5003;23175;-33.706;151.094;2023-05-27T08:58:07;19;19;
37290;PMS5003;23175;-33.706;151.094;2023-05-27T09:00:39;15;15;
37290;PMS5003;23175;-33.706;151.094;2023-05-27T09:03:10;10;10;
37290;PMS5003;23175;-33.706;151.094;2023-05-27T09:05:41;13;10;
37290;PMS5003;23175;-33.706;151.094;2023-05-27T09:08:13;8;8;
37290;PMS5003;23175;-33.706;151.094;2023-05-27T09:10:42;7;7;
37290;PMS5003;23175;-33.706;151.094;2023-05-27T09:13:12;9;9;
37290;PMS5003;23175;-33.706;151.094;2023-05-27T09:15:57;9;9;
37290;PMS5003;23175;-33.706;151.094;2023-05-27T09:18:29;12;10;
37290;PMS5003;23175;-33.706;151.094;2023-05-27T09:21:01;9;9;
37290;PMS5003;23175;-33.706;151.094;2023-05-27T09:23:36;9;9;
37290;PMS5003;23175;-33.706;151.094;2023-05-27T09:26:08;11;11;
37290;PMS5003;23175;-33.706;151.094;2023-05-27T09:28:39;8;8;
37290;PMS5003;23175;-33.706;151.094;2023-05-27T09:31:09;14;12;
37290;PMS5003;23175;-33.706;151.094;2023-05-27T09:33:39;21;18;
37290;PMS5003;23175;-33.706;151.094;2023-05-27T09:36:09;148;143;
37290;PMS5003;23175;-33.706;151.094;2023-05-27T09:38:39;287;270;
37290;PMS5003;23175;-33.706;151.094;2023-05-27T09:41:09;359;324;
37290;PMS5003;23175;-33.706;151.094;2023-05-27T09:43:39;309;293;
37290;PMS5003;23175;-33.706;151.094;2023-05-27T09:46:11;249;231;
37290;PMS5003;23175;-33.706;151.094;2023-05-27T09:48:41;159;148;
37290;PMS5003;23175;-33.706;151.094;2023-05-27T09:51:12;131;121;
37290;PMS5003;23175;-33.706;151.094;2023-05-27T09:53:43;144;137;
37290;PMS5003;23175;-33.706;151.094;2023-05-27T09:56:15;140;131;
37290;PMS5003;23175;-33.706;151.094;2023-05-27T09:58:45;84;81;
37290;PMS5003;23175;-33.706;151.094;2023-05-27T10:01:16;54;54;
37290;PMS5003;23175;-33.706;151.094;2023-05-27T10:03:47;46;44;
37290;PMS5003;23175;-33.706;151.094;2023-05-27T10:06:19;36;33;
37290;PMS5003;23175;-33.706;151.094;2023-05-27T10:08:49;32;31;
37290;PMS5003;23175;-33.706;151.094;2023-05-27T10:11:19;20;18;
37290;PMS5003;23175;-33.706;151.094;2023-05-27T10:13:50;19;19;
37290;PMS5003;23175;-33.706;151.094;2023-05-27T10:16:21;15;14;
37290;PMS5003;23175;-33.706;151.094;2023-05-27T10:18:54;12;12;
37290;PMS5003;23175;-33.706;151.094;2023-05-27T10:21:26;15;15;
37290;PMS5003;23175;-33.706;151.094;2023-05-27T10:23:57;45;45;
37290;PMS5003;23175;-33.706;151.094;2023-05-27T10:26:33;55;52;
37290;PMS5003;23175;-33.706;151.094;2023-05-27T10:29:06;40;40;
37290;PMS5003;23175;-33.706;151.094;2023-05-27T10:31:36;35;35;
37290;PMS5003;23175;-33.706;151.094;2023-05-27T10:34:14;35;33;
37290;PMS5003;23175;-33.706;151.094;2023-05-27T10:36:45;30;30;
37290;PMS5003;23175;-33.706;151.094;2023-05-27T10:39:25;19;17;
37290;PMS5003;23175;-33.706;151.094;2023-05-27T10:41:56;24;24;
37290;PMS5003;23175;-33.706;151.094;2023-05-27T10:44:27;19;19;
37290;PMS5003;23175;-33.706;151.094;2023-05-27T10:47:01;26;24;
37290;PMS5003;23175;-33.706;151.094;2023-05-27T10:49:37;29;29;
37290;PMS5003;23175;-33.706;151.094;2023-05-27T10:52:08;33;32;
37290;PMS5003;23175;-33.706;151.094;2023-05-27T10:54:40;27;22;
37290;PMS5003;23175;-33.706;151.094;2023-05-27T10:57:12;22;20;
37290;PMS5003;23175;-33.706;151.094;2023-05-27T10:59:47;22;22;
37290;PMS5003;23175;-33.706;151.094;2023-05-27T11:02:19;32;32;
37290;PMS5003;23175;-33.706;151.094;2023-05-27T11:04:50;71;71;
37290;PMS5003;23175;-33.706;151.094;2023-05-27T11:07:21;71;64;
37290;PMS5003;23175;-33.706;151.094;2023-05-27T11:09:52;58;55;
37290;PMS5003;23175;-33.706;151.094;2023-05-27T11:12:23;63;58;
37290;PMS5003;23175;-33.706;151.094;2023-05-27T11:14:54;67;66;
37290;PMS5003;23175;-33.706;151.094;2023-05-27T11:17:24;62;60;
37290;PMS5003;23175;-33.706;151.094;2023-05-27T11:19:55;52;49;
37290;PMS5003;23175;-33.706;151.094;2023-05-27T11:22:25;66;57;
37290;PMS5003;23175;-33.706;151.094;2023-05-27T11:24:56;66;64;
37290;PMS5003;23175;-33.706;151.094;2023-05-27T11:27:32;68;66;
37290;PMS5003;23175;-33.706;151.094;2023-05-27T11:30:07;79;78;
37290;PMS5003;23175;-33.706;151.094;2023-05-27T11:32:39;72;67;
37290;PMS5003;23175;-33.706;151.094;2023-05-27T11:35:17;56;51;
37290;PMS5003;23175;-33.706;151.094;2023-05-27T11:37:49;54;53;
37290;PMS5003;23175;-33.706;151.094;2023-05-27T11:40:20;53;52;
37290;PMS5003;23175;-33.706;151.094;2023-05-27T11:42:50;35;32;
37290;PMS5003;23175;-33.706;151.094;2023-05-27T11:45:21;33;32;
37290;PMS5003;23175;-33.706;151.094;2023-05-27T11:47:53;42;42;
37290;PMS5003;23175;-33.706;151.094;2023-05-27T11:50:24;46;44;
37290;PMS5003;23175;-33.706;151.094;2023-05-27T11:52:56;42;41;
37290;PMS5003;23175;-33.706;151.094;2023-05-27T11:55:30;39;39;
37290;PMS5003;23175;-33.706;151.094;2023-05-27T11:58:02;40;40;
37290;PMS5003;23175;-33.706;151.094;2023-05-27T12:00:33;37;35;
37290;PMS5003;23175;-33.706;151.094;2023-05-27T12:03:03;41;37;
37290;PMS5003;23175;-33.706;151.094;2023-05-27T12:05:33;38;36;
37290;PMS5003;23175;-33.706;151.094;2023-05-27T12:08:03;42;42;
37290;PMS5003;23175;-33.706;151.094;2023-05-27T12:10:35;49;46;
37290;PMS5003;23175;-33.706;151.094;2023-05-27T12:13:05;47;47;
37290;PMS5003;23175;-33.706;151.094;2023-05-27T12:15:35;45;43;
37290;PMS5003;23175;-33.706;151.094;2023-05-27T12:18:06;37;37;
37290;PMS5003;23175;-33.706;151.094;2023-05-27T12:20:36;35;35;
37290;PMS5003;23175;-33.706;151.094;2023-05-27T12:23:06;45;40;
37290;PMS5003;23175;-33.706;151.094;2023-05-27T12:25:37;56;56;
37290;PMS5003;23175;-33.706;151.094;2023-05-27T12:28:08;59;57;
37290;PMS5003;23175;-33.706;151.094;2023-05-27T12:30:38;97;93;
37290;PMS5003;23175;-33.706;151.094;2023-05-27T12:33:08;82;77;
37290;PMS5003;23175;-33.706;151.094;2023-05-27T12:35:38;70;67;
37290;PMS5003;23175;-33.706;151.094;2023-05-27T12:38:13;79;76;
37290;PMS5003;23175;-33.706;151.094;2023-05-27T12:40:43;220;203;
37290;PMS5003;23175;-33.706;151.094;2023-05-27T12:43:14;157;149;
37290;PMS5003;23175;-33.706;151.094;2023-05-27T12:45:45;96;92;
37290;PMS5003;23175;-33.706;151.094;2023-05-27T12:48:15;129;122;
37290;PMS5003;23175;-33.706;151.094;2023-05-27T12:50:47;189;184;
37290;PMS5003;23175;-33.706;151.094;2023-05-27T12:53:17;164;160;
37290;PMS5003;23175;-33.706;151.094;2023-05-27T12:55:47;107;101;
37290;PMS5003;23175;-33.706;151.094;2023-05-27T12:58:17;77;76;
37290;PMS5003;23175;-33.706;151.094;2023-05-27T13:00:48;67;67;
37290;PMS5003;23175;-33.706;151.094;2023-05-27T13:03:19;67;64;
37290;PMS5003;23175;-33.706;151.094;2023-05-27T13:05:48;49;45;
37290;PMS5003;23175;-33.706;151.094;2023-05-27T13:08:24;31;26;
37290;PMS5003;23175;-33.706;151.094;2023-05-27T13:10:54;31;29;
37290;PMS5003;23175;-33.706;151.094;2023-05-27T13:13:26;35;32;
37290;PMS5003;23175;-33.706;151.094;2023-05-27T13:15:56;34;31;
37290;PMS5003;23175;-33.706;151.094;2023-05-27T13:18:26;50;45;
37290;PMS5003;23175;-33.706;151.094;2023-05-27T13:20:56;68;64;
37290;PMS5003;23175;-33.706;151.094;2023-05-27T13:23:27;101;97;
37290;PMS5003;23175;-33.706;151.094;2023-05-27T13:25:57;98;93;
37290;PMS5003;23175;-33.706;151.094;2023-05-27T13:28:28;74;69;
37290;PMS5003;23175;-33.706;151.094;2023-05-27T13:30:58;67;64;
37290;PMS5003;23175;-33.706;151.094;2023-05-27T13:33:28;53;51;
37290;PMS5003;23175;-33.706;151.094;2023-05-27T13:35:58;66;61;
37290;PMS5003;23175;-33.706;151.094;2023-05-27T13:38:28;80;77;
37290;PMS5003;23175;-33.706;151.094;2023-05-27T13:40:59;66;64;
37290;PMS5003;23175;-33.706;151.094;2023-05-27T13:43:29;44;41;
37290;PMS5003;23175;-33.706;151.094;2023-05-27T13:45:59;41;39;
37290;PMS5003;23175;-33.706;151.094;2023-05-27T13:48:31;41;39;
37290;PMS5003;23175;-33.706;151.094;2023-05-27T13:51:03;44;43;
37290;PMS5003;23175;-33.706;151.094;2023-05-27T13:53:33;42;41;
37290;PMS5003;23175;-33.706;151.094;2023-05-27T13:56:03;51;46;
37290;PMS5003;23175;-33.706;151.094;2023-05-27T13:58:34;79;74;
37290;PMS5003;23175;-33.706;151.094;2023-05-27T14:01:04;70;66;
37290;PMS5003;23175;-33.706;151.094;2023-05-27T14:03:35;99;92;
37290;PMS5003;23175;-33.706;151.094;2023-05-27T14:06:06;94;94;
37290;PMS5003;23175;-33.706;151.094;2023-05-27T14:08:36;100;96;
37290;PMS5003;23175;-33.706;151.094;2023-05-27T14:11:06;84;80;
37290;PMS5003;23175;-33.706;151.094;2023-05-27T14:13:38;83;78;
37290;PMS5003;23175;-33.706;151.094;2023-05-27T14:16:09;69;65;
37290;PMS5003;23175;-33.706;151.094;2023-05-27T14:18:38;68;66;
37290;PMS5003;23175;-33.706;151.094;2023-05-27T14:21:10;82;76;
37290;PMS5003;23175;-33.706;151.094;2023-05-27T14:23:41;103;90;
37290;PMS5003;23175;-33.706;151.094;2023-05-27T14:26:12;175;157;
37290;PMS5003;23175;-33.706;151.094;2023-05-27T14:28:42;182;168;
37290;PMS5003;23175;-33.706;151.094;2023-05-27T14:31:13;200;193;
37290;PMS5003;23175;-33.706;151.094;2023-05-27T14:33:43;181;172;
37290;PMS5003;23175;-33.706;151.094;2023-05-27T14:36:13;194;179;
37290;PMS5003;23175;-33.706;151.094;2023-05-27T14:38:43;143;131;
37290;PMS5003;23175;-33.706;151.094;2023-05-27T14:41:13;76;73;
37290;PMS5003;23175;-33.706;151.094;2023-05-27T14:43:44;124;118;
37290;PMS5003;23175;-33.706;151.094;2023-05-27T14:46:16;111;108;
37290;PMS5003;23175;-33.706;151.094;2023-05-27T14:48:46;83;78;
37290;PMS5003;23175;-33.706;151.094;2023-05-27T14:51:17;69;67;
37290;PMS5003;23175;-33.706;151.094;2023-05-27T14:53:47;75;69;
37290;PMS5003;23175;-33.706;151.094;2023-05-27T14:56:17;76;72;
37290;PMS5003;23175;-33.706;151.094;2023-05-27T14:58:48;90;87;
37290;PMS5003;23175;-33.706;151.094;2023-05-27T15:01:19;100;93;
37290;PMS5003;23175;-33.706;151.094;2023-05-27T15:03:50;115;106;
37290;PMS5003;23175;-33.706;151.094;2023-05-27T15:06:20;107;104;
37290;PMS5003;23175;-33.706;151.094;2023-05-27T15:08:50;95;93;
37290;PMS5003;23175;-33.706;151.094;2023-05-27T15:11:21;108;105;
37290;PMS5003;23175;-33.706;151.094;2023-05-27T15:13:52;112;109;
37290;PMS5003;23175;-33.706;151.094;2023-05-27T15:16:22;107;98;
37290;PMS5003;23175;-33.706;151.094;2023-05-27T15:18:53;87;81;
37290;PMS5003;23175;-33.706;151.094;2023-05-27T15:21:24;86;83;
37290;PMS5003;23175;-33.706;151.094;2023-05-27T15:23:54;77;74;
37290;PMS5003;23175;-33.706;151.094;2023-05-27T15:26:24;72;70;
37290;PMS5003;23175;-33.706;151.094;2023-05-27T15:28:54;69;65;
37290;PMS5003;23175;-33.706;151.094;2023-05-27T15:31:25;69;65;
37290;PMS5003;23175;-33.706;151.094;2023-05-27T15:33:55;62;61;
37290;PMS5003;23175;-33.706;151.094;2023-05-27T15:36:26;62;60;
37290;PMS5003;23175;-33.706;151.094;2023-05-27T15:38:56;57;57;
37290;PMS5003;23175;-33.706;151.094;2023-05-27T15:41:26;49;47;
37290;PMS5003;23175;-33.706;151.094;2023-05-27T15:43:58;66;58;
37290;PMS5003;23175;-33.706;151.094;2023-05-27T15:46:28;60;57;
37290;PMS5003;23175;-33.706;151.094;2023-05-27T15:48:58;62;56;
37290;PMS5003;23175;-33.706;151.094;2023-05-27T15:51:28;58;54;
37290;PMS5003;23175;-33.706;151.094;2023-05-27T15:53:58;54;53;
37290;PMS5003;23175;-33.706;151.094;2023-05-27T15:56:29;50;48;
37290;PMS5003;23175;-33.706;151.094;2023-05-27T15:58:59;55;53;
37290;PMS5003;23175;-33.706;151.094;2023-05-27T16:01:29;56;52;
37290;PMS5003;23175;-33.706;151.094;2023-05-27T16:03:59;46;46;